createdAt,value
2019-02-21T00:01:44.803Z,8.53
2019-02-21T00:04:13.554Z,7.40
2019-02-21T00:06:42.317Z,8.33
2019-02-21T00:09:11.043Z,8.30
2019-02-21T00:11:39.876Z,8.37
2019-02-21T00:14:08.599Z,6.47
2019-02-21T00:16:37.317Z,8.37
2019-02-21T00:19:06.065Z,8.57
2019-02-21T00:21:34.853Z,8.63
2019-02-21T00:24:03.685Z,8.93
2019-02-21T00:26:32.491Z,9.03
2019-02-21T00:29:01.213Z,9.13
2019-02-21T00:31:29.993Z,8.37
2019-02-21T00:33:58.742Z,8.47
2019-02-21T00:36:27.445Z,7.97
2019-02-21T00:38:56.316Z,8.10
2019-02-21T00:41:25.088Z,9.13
2019-02-21T00:43:53.827Z,8.30
2019-02-21T00:46:22.634Z,8.73
2019-02-21T00:48:51.378Z,8.13
2019-02-21T00:51:20.104Z,8.47
2019-02-21T00:53:48.864Z,8.73
2019-02-21T00:56:17.591Z,9.00
2019-02-21T00:58:46.304Z,8.20
2019-02-21T01:01:15.045Z,8.17
2019-02-21T01:03:43.858Z,8.10
2019-02-21T01:06:12.675Z,9.20
2019-02-21T01:08:41.480Z,9.10
2019-02-21T01:11:10.186Z,9.00
2019-02-21T01:13:38.922Z,7.83
2019-02-21T01:16:07.635Z,8.53
2019-02-21T01:18:36.516Z,8.97
2019-02-21T01:21:05.258Z,8.43
2019-02-21T01:23:33.981Z,8.67
2019-02-21T01:26:02.712Z,8.90
2019-02-21T01:28:31.478Z,8.33
2019-02-21T01:31:00.258Z,8.70
2019-02-21T01:33:29.064Z,8.77
2019-02-21T01:35:58.045Z,9.00
2019-02-21T01:38:26.965Z,8.50
2019-02-21T01:40:55.719Z,9.30
2019-02-21T01:43:24.492Z,9.53
2019-02-21T01:45:53.212Z,9.23
2019-02-21T01:48:22.089Z,8.40
2019-02-21T01:50:50.786Z,7.20
2019-02-21T01:53:19.629Z,8.47
2019-02-21T01:55:48.395Z,8.33
2019-02-21T01:58:17.121Z,9.60
2019-02-21T02:00:45.902Z,9.23
2019-02-21T02:03:14.710Z,8.90
2019-02-21T02:05:43.464Z,10.53
2019-02-21T02:08:12.266Z,9.97
2019-02-21T02:10:41.039Z,9.80
2019-02-21T02:13:23.555Z,10.07
2019-02-21T02:15:40.296Z,10.10
2019-02-21T02:18:09.015Z,9.53
2019-02-21T02:20:37.770Z,9.50
2019-02-21T02:23:06.482Z,8.57
2019-02-21T02:25:35.214Z,10.60
2019-02-21T02:28:03.946Z,9.50
2019-02-21T02:30:32.762Z,8.90
2019-02-21T02:33:01.549Z,9.40
2019-02-21T02:35:30.356Z,10.50
2019-02-21T02:37:59.125Z,9.57
2019-02-21T02:40:27.892Z,9.90
2019-02-21T02:42:56.678Z,9.73
2019-02-21T02:45:25.420Z,10.00
2019-02-21T02:47:54.291Z,10.23
2019-02-21T02:50:23.213Z,10.47
2019-02-21T02:52:51.987Z,9.97
2019-02-21T02:55:20.738Z,9.70
2019-02-21T02:57:49.590Z,9.10
2019-02-21T03:00:18.371Z,9.37
2019-02-21T03:02:47.150Z,8.30
2019-02-21T03:05:15.960Z,9.40
2019-02-21T03:07:44.747Z,9.23
2019-02-21T03:10:14.361Z,8.73
2019-02-21T03:12:43.138Z,9.33
2019-02-21T03:15:11.985Z,10.03
2019-02-21T03:17:40.715Z,9.50
2019-02-21T03:20:09.634Z,9.37
2019-02-21T03:22:38.389Z,9.97
2019-02-21T03:25:07.189Z,10.23
2019-02-21T03:27:35.892Z,9.63
2019-02-21T03:30:04.890Z,9.13
2019-02-21T03:32:33.604Z,9.87
2019-02-21T03:35:02.399Z,9.97
2019-02-21T03:37:31.231Z,10.93
2019-02-21T03:40:00.010Z,9.77
2019-02-21T03:42:28.724Z,10.60
2019-02-21T03:44:57.538Z,10.50
2019-02-21T03:47:26.333Z,9.87
2019-02-21T03:49:55.115Z,10.30
2019-02-21T03:52:23.962Z,9.80
2019-02-21T03:54:52.873Z,11.00
2019-02-21T03:57:21.673Z,9.73
2019-02-21T03:59:50.447Z,10.47
2019-02-21T04:02:19.292Z,10.13
2019-02-21T04:04:48.072Z,10.47
2019-02-21T04:07:16.868Z,10.17
2019-02-21T04:09:45.574Z,10.80
2019-02-21T04:12:14.533Z,10.20
2019-02-21T04:14:43.288Z,9.97
2019-02-21T04:17:11.997Z,9.83
2019-02-21T04:19:40.791Z,10.67
2019-02-21T04:22:09.547Z,10.67
2019-02-21T04:24:38.318Z,10.50
2019-02-21T04:27:07.156Z,9.60
2019-02-21T04:29:35.932Z,10.17
2019-02-21T04:32:16.110Z,10.13
2019-02-21T04:34:35.125Z,11.00
2019-02-21T04:37:03.864Z,10.10
2019-02-21T04:39:32.666Z,10.57
2019-02-21T04:42:01.424Z,9.87
2019-02-21T04:44:30.207Z,10.97
2019-02-21T04:46:59.030Z,10.57
2019-02-21T04:49:27.842Z,10.87
2019-02-21T04:51:56.661Z,11.43
2019-02-21T04:54:25.430Z,10.63
2019-02-21T04:56:54.262Z,11.13
2019-02-21T04:59:23.078Z,10.73
2019-02-21T05:01:51.864Z,10.87
2019-02-21T05:04:20.649Z,11.57
2019-02-21T05:06:49.420Z,10.50
2019-02-21T05:09:18.211Z,10.80
2019-02-21T05:11:46.945Z,10.87
2019-02-21T05:14:15.738Z,10.07
2019-02-21T05:16:44.764Z,10.73
2019-02-21T05:19:13.609Z,10.23
2019-02-21T05:21:42.373Z,11.40
2019-02-21T05:24:11.183Z,10.87
2019-02-21T05:26:49.990Z,10.17
2019-02-21T05:29:18.852Z,10.70
2019-02-21T05:32:09.724Z,11.67
2019-02-21T05:34:46.668Z,10.67
2019-02-21T05:37:32.474Z,10.87
2019-02-21T05:40:18.817Z,10.37
2019-02-21T05:43:09.721Z,10.30
2019-02-21T05:46:12.770Z,10.97
2019-02-21T05:49:00.625Z,10.27
2019-02-21T05:51:57.587Z,10.17
2019-02-21T05:54:49.168Z,10.13
2019-02-21T05:57:36.925Z,11.77
2019-02-21T06:00:23.891Z,10.93
2019-02-21T06:03:07.322Z,10.60
2019-02-21T06:05:58.205Z,10.60
2019-02-21T06:08:37.552Z,10.50
2019-02-21T06:11:25.318Z,10.63
2019-02-21T06:14:13.259Z,11.27
2019-02-21T06:17:07.180Z,10.40
2019-02-21T06:20:03.992Z,10.67
2019-02-21T06:22:51.947Z,10.77
2019-02-21T06:25:50.836Z,10.57
2019-02-21T06:28:18.724Z,10.63
2019-02-21T06:30:53.843Z,11.30
2019-02-21T06:33:22.598Z,10.87
2019-02-21T06:35:51.319Z,10.33
2019-02-21T06:38:20.190Z,11.97
2019-02-21T06:40:48.942Z,10.77
2019-02-21T06:43:17.743Z,11.27
2019-02-21T06:45:46.525Z,11.23
2019-02-21T06:48:15.351Z,11.47
2019-02-21T06:50:44.072Z,10.40
2019-02-21T06:53:12.817Z,10.97
2019-02-21T06:55:41.543Z,11.07
2019-02-21T06:58:10.319Z,10.73
2019-02-21T07:00:39.037Z,11.60
2019-02-21T07:03:15.472Z,11.43
2019-02-21T07:05:38.335Z,10.87
2019-02-21T07:08:08.854Z,11.23
2019-02-21T07:10:37.611Z,10.73
2019-02-21T07:13:06.436Z,11.63
2019-02-21T07:15:35.191Z,10.30
2019-02-21T07:18:03.920Z,9.97
2019-02-21T07:20:32.740Z,9.97
2019-02-21T07:23:01.604Z,10.77
2019-02-21T07:25:43.224Z,10.03
2019-02-21T07:28:15.621Z,11.70
2019-02-21T07:30:43.018Z,10.90
2019-02-21T07:33:12.111Z,11.23
2019-02-21T07:35:40.966Z,10.43
2019-02-21T07:38:09.745Z,11.13
2019-02-21T07:40:38.546Z,11.17
2019-02-21T07:43:07.332Z,10.30
2019-02-21T07:45:36.592Z,11.37
2019-02-21T07:48:05.428Z,10.53
2019-02-21T07:50:34.252Z,9.20
2019-02-21T07:53:03.115Z,11.73
2019-02-21T07:55:31.945Z,11.90
2019-02-21T07:58:00.814Z,10.20
2019-02-21T08:00:29.595Z,10.60
2019-02-21T08:02:58.387Z,10.00
2019-02-21T08:05:27.198Z,11.53
2019-02-21T08:07:55.991Z,10.50
2019-02-21T08:10:33.143Z,10.50
2019-02-21T08:12:55.189Z,11.23
2019-02-21T08:15:24.043Z,10.43
2019-02-21T08:17:52.812Z,10.60
2019-02-21T08:20:21.626Z,11.23
2019-02-21T08:22:50.454Z,10.27
2019-02-21T08:25:19.500Z,10.23
2019-02-21T08:27:48.424Z,10.77
2019-02-21T08:30:17.159Z,11.63
2019-02-21T08:33:09.164Z,10.90
2019-02-21T08:35:37.894Z,10.83
2019-02-21T08:38:06.663Z,11.30
2019-02-21T08:40:35.430Z,10.17
2019-02-21T08:43:04.305Z,10.67
2019-02-21T08:45:33.146Z,11.37
2019-02-21T08:48:01.838Z,10.17
2019-02-21T08:50:30.602Z,10.37
2019-02-21T08:53:01.028Z,10.03
2019-02-21T08:55:29.787Z,11.27
2019-02-21T08:57:58.595Z,11.53
2019-02-21T09:00:27.373Z,11.23
2019-02-21T09:02:58.083Z,10.43
2019-02-21T09:05:26.601Z,11.57
2019-02-21T09:07:55.412Z,10.63
2019-02-21T09:10:24.137Z,11.93
2019-02-21T09:12:52.871Z,11.17
2019-02-21T09:15:21.561Z,10.90
2019-02-21T09:17:50.410Z,11.60
2019-02-21T09:20:19.273Z,11.27
2019-02-21T09:22:48.068Z,10.67
2019-02-21T09:25:16.871Z,10.53
2019-02-21T09:27:45.589Z,11.47
2019-02-21T09:30:15.373Z,10.47
2019-02-21T09:32:44.197Z,11.07
2019-02-21T09:35:12.986Z,10.77
2019-02-21T09:37:41.719Z,9.67
2019-02-21T09:40:11.396Z,11.63
2019-02-21T09:42:40.231Z,10.83
2019-02-21T09:45:10.244Z,10.30
2019-02-21T09:47:39.110Z,11.67
2019-02-21T09:50:08.356Z,10.57
2019-02-21T09:52:37.138Z,10.70
2019-02-21T09:55:07.120Z,10.37
2019-02-21T09:57:35.844Z,10.57
2019-02-21T10:00:05.119Z,10.57
2019-02-21T10:02:34.068Z,10.83
2019-02-21T10:05:05.332Z,10.80
2019-02-21T10:07:33.275Z,11.13
2019-02-21T10:10:01.986Z,10.60
2019-02-21T10:12:30.737Z,10.67
2019-02-21T10:14:59.663Z,11.40
2019-02-21T10:17:28.395Z,10.20
2019-02-21T10:19:57.153Z,11.17
2019-02-21T10:22:26.278Z,11.47
2019-02-21T10:24:56.955Z,10.67
2019-02-21T10:27:25.540Z,11.13
2019-02-21T10:29:54.257Z,11.00
2019-02-21T10:32:22.995Z,9.27
2019-02-21T10:34:53.065Z,10.33
2019-02-21T10:37:22.009Z,11.33
2019-02-21T10:39:50.815Z,10.90
2019-02-21T10:42:19.649Z,11.20
2019-02-21T10:44:48.382Z,10.13
2019-02-21T10:47:17.211Z,11.23
2019-02-21T10:49:45.980Z,10.93
2019-02-21T10:52:14.881Z,10.77
2019-02-21T10:54:43.638Z,10.23
2019-02-21T10:57:12.381Z,11.13
2019-02-21T10:59:46.673Z,10.10
2019-02-21T11:02:11.691Z,11.47
2019-02-21T11:04:42.219Z,10.97
2019-02-21T11:07:10.947Z,10.70
2019-02-21T11:09:39.698Z,10.40
2019-02-21T11:12:08.480Z,11.13
2019-02-21T11:14:47.245Z,10.33
2019-02-21T11:17:07.786Z,11.23
2019-02-21T11:19:36.586Z,10.33
2019-02-21T11:22:05.408Z,11.27
2019-02-21T11:24:34.216Z,11.70
2019-02-21T11:27:02.952Z,11.13
2019-02-21T11:29:31.869Z,11.87
2019-02-21T11:32:00.633Z,10.77
2019-02-21T11:34:29.377Z,11.80
2019-02-21T11:36:58.184Z,12.03
2019-02-21T11:39:27.034Z,11.73
2019-02-21T11:41:55.824Z,11.93
2019-02-21T11:44:24.611Z,11.73
2019-02-21T11:46:53.360Z,10.30
2019-02-21T11:49:22.188Z,11.13
2019-02-21T11:51:51.009Z,11.73
2019-02-21T11:54:26.989Z,11.70
2019-02-21T11:56:50.226Z,11.53
2019-02-21T11:59:18.965Z,11.30
2019-02-21T12:01:47.789Z,11.27
2019-02-21T12:04:16.572Z,10.80
2019-02-21T12:06:47.653Z,10.67
2019-02-21T12:09:15.826Z,12.00
2019-02-21T12:11:44.610Z,11.20
2019-02-21T12:14:13.415Z,11.40
2019-02-21T12:16:42.140Z,10.97
2019-02-21T12:19:10.980Z,11.40
2019-02-21T12:21:39.766Z,13.00
2019-02-21T12:24:08.548Z,11.27
2019-02-21T12:26:37.361Z,11.90
2019-02-21T12:29:06.147Z,12.13
2019-02-21T12:31:34.961Z,12.00
2019-02-21T12:34:03.789Z,11.80
2019-02-21T12:36:32.567Z,12.57
2019-02-21T12:39:02.001Z,13.03
2019-02-21T12:41:41.682Z,12.77
2019-02-21T12:44:10.519Z,12.63
2019-02-21T12:46:39.392Z,12.97
2019-02-21T12:49:10.623Z,12.57
2019-02-21T12:51:38.597Z,12.93
2019-02-21T12:54:07.419Z,12.00
2019-02-21T12:56:36.207Z,12.97
2019-02-21T12:59:04.956Z,12.00
2019-02-21T13:01:33.792Z,13.07
2019-02-21T13:04:02.636Z,13.10
2019-02-21T13:06:31.395Z,13.57
2019-02-21T13:09:00.149Z,12.87
2019-02-21T13:11:28.915Z,13.80
2019-02-21T13:13:57.680Z,12.10
2019-02-21T13:16:26.416Z,13.37
2019-02-21T13:18:55.136Z,12.20
2019-02-21T13:21:23.891Z,13.03
2019-02-21T13:23:52.620Z,12.57
2019-02-21T13:26:21.426Z,13.40
2019-02-21T13:28:50.151Z,14.03
2019-02-21T13:31:18.956Z,12.93
2019-02-21T13:33:47.789Z,13.63
2019-02-21T13:36:16.622Z,13.40
2019-02-21T13:38:45.413Z,12.40
2019-02-21T13:41:14.233Z,13.20
2019-02-21T13:43:42.940Z,13.63
2019-02-21T13:46:11.717Z,13.40
2019-02-21T13:48:40.568Z,13.83
2019-02-21T13:51:09.316Z,14.03
2019-02-21T13:53:38.156Z,12.63
2019-02-21T13:56:06.909Z,12.93
2019-02-21T13:58:35.690Z,13.63
2019-02-21T14:01:04.518Z,13.87
2019-02-21T14:03:33.325Z,14.00
2019-02-21T14:06:03.817Z,14.90
2019-02-21T14:08:32.614Z,15.37
2019-02-21T14:11:01.365Z,13.67
2019-02-21T14:13:30.093Z,12.90
2019-02-21T14:15:58.922Z,12.53
2019-02-21T14:18:27.725Z,12.70
2019-02-21T14:20:56.542Z,12.97
2019-02-21T14:23:27.937Z,12.77
2019-02-21T14:25:55.984Z,13.17
2019-02-21T14:28:24.750Z,13.00
2019-02-21T14:30:53.509Z,12.77
2019-02-21T14:33:22.274Z,11.80
2019-02-21T14:35:51.108Z,10.87
2019-02-21T14:38:27.874Z,12.80
2019-02-21T14:40:50.420Z,11.80
2019-02-21T14:43:19.178Z,11.70
2019-02-21T14:45:47.923Z,11.27
2019-02-21T14:48:16.685Z,11.60
2019-02-21T14:50:47.831Z,11.13
2019-02-21T14:53:16.600Z,11.57
2019-02-21T14:55:45.348Z,11.17
2019-02-21T14:58:14.182Z,11.27
2019-02-21T15:00:43.073Z,11.30
2019-02-21T15:03:21.699Z,11.23
2019-02-21T15:05:42.386Z,10.97
2019-02-21T15:08:11.220Z,11.23
2019-02-21T15:10:40.016Z,9.73
2019-02-21T15:13:09.948Z,10.50
2019-02-21T15:15:38.742Z,11.17
2019-02-21T15:18:10.509Z,11.07
2019-02-21T15:20:38.087Z,10.60
2019-02-21T15:23:06.911Z,10.70
2019-02-21T15:25:35.719Z,10.67
2019-02-21T15:28:04.488Z,9.20
2019-02-21T15:30:33.487Z,9.87
2019-02-21T15:33:02.308Z,10.07
2019-02-21T15:35:32.220Z,9.73
2019-02-21T15:38:01.077Z,9.07
2019-02-21T15:40:30.015Z,9.83
2019-02-21T15:42:58.856Z,9.10
2019-02-21T15:45:27.651Z,8.13
2019-02-21T15:47:56.402Z,8.10
2019-02-21T15:50:26.800Z,7.57
2019-02-21T15:52:55.763Z,7.60
2019-02-21T15:55:24.588Z,7.20
2019-02-21T15:58:03.433Z,8.13
2019-02-21T16:00:23.896Z,7.07
2019-02-21T16:02:52.798Z,6.63
2019-02-21T16:05:21.571Z,6.50
2019-02-21T16:07:50.432Z,6.80
2019-02-21T16:10:22.447Z,6.17
2019-02-21T16:12:51.619Z,4.67
2019-02-21T16:15:24.685Z,5.20
2019-02-21T16:17:56.476Z,5.53
2019-02-21T16:20:25.462Z,5.63
2019-02-21T16:22:54.250Z,4.77
2019-02-21T16:25:23.123Z,4.27
2019-02-21T16:27:51.920Z,4.33
2019-02-21T16:30:22.529Z,3.37
2019-02-21T16:32:51.373Z,3.90
2019-02-21T16:35:20.181Z,3.30
2019-02-21T16:37:48.974Z,4.07
2019-02-21T16:40:17.835Z,3.67
2019-02-21T16:42:46.694Z,2.90
2019-02-21T16:45:15.449Z,3.30
2019-02-21T16:47:44.299Z,3.63
2019-02-21T16:50:13.296Z,3.63
2019-02-21T16:52:42.105Z,3.30
2019-02-21T16:55:12.146Z,3.30
2019-02-21T16:57:40.901Z,2.80
2019-02-21T17:00:10.530Z,3.23
2019-02-21T17:02:39.420Z,3.30
2019-02-21T17:05:08.596Z,3.80
2019-02-21T17:07:37.300Z,3.53
2019-02-21T17:10:06.237Z,3.30
2019-02-21T17:12:36.978Z,3.23
2019-02-21T17:15:05.502Z,3.47
2019-02-21T17:17:34.262Z,4.13
2019-02-21T17:20:03.012Z,3.33
2019-02-21T17:22:31.761Z,4.23
2019-02-21T17:25:00.781Z,3.97
2019-02-21T17:27:29.554Z,3.97
2019-02-21T17:29:59.287Z,4.30
2019-02-21T17:32:28.201Z,4.77
2019-02-21T17:34:56.963Z,5.70
2019-02-21T17:37:25.721Z,5.30
2019-02-21T17:39:54.906Z,5.67
2019-02-21T17:42:23.718Z,5.00
2019-02-21T17:44:52.527Z,5.37
2019-02-21T17:47:21.293Z,7.47
2019-02-21T17:49:50.097Z,6.00
2019-02-21T17:52:19.072Z,5.87
2019-02-21T17:54:47.921Z,6.53
2019-02-21T17:57:16.745Z,6.53
2019-02-21T17:59:45.505Z,6.60
2019-02-21T18:02:14.403Z,7.20
2019-02-21T18:04:43.209Z,10.50
2019-02-21T18:07:12.040Z,7.60
2019-02-21T18:09:40.797Z,8.10
2019-02-21T18:12:09.621Z,7.63
2019-02-21T18:14:38.439Z,8.10
2019-02-21T18:17:07.217Z,8.03
2019-02-21T18:19:36.021Z,9.27
2019-02-21T18:22:04.739Z,8.67
2019-02-21T18:24:33.509Z,7.90
2019-02-21T18:27:02.227Z,7.47
2019-02-21T18:29:31.032Z,8.10
2019-02-21T18:31:59.854Z,8.27
2019-02-21T18:34:28.704Z,8.37
2019-02-21T18:36:57.538Z,8.80
2019-02-21T18:39:26.359Z,8.73
2019-02-21T18:41:55.331Z,8.37
2019-02-21T18:44:24.191Z,7.93
2019-02-21T18:46:53.047Z,8.77
2019-02-21T18:49:21.886Z,8.47
2019-02-21T18:51:50.652Z,8.43
2019-02-21T18:54:19.453Z,8.07
2019-02-21T18:56:48.340Z,9.20
2019-02-21T18:59:17.102Z,8.90
2019-02-21T19:01:45.925Z,10.90
2019-02-21T19:04:14.837Z,8.53
2019-02-21T19:06:43.623Z,10.30
2019-02-21T19:09:12.484Z,9.40
2019-02-21T19:11:41.342Z,9.83
2019-02-21T19:14:10.196Z,8.93
2019-02-21T19:16:39.067Z,9.77
2019-02-21T19:19:07.890Z,8.53
2019-02-21T19:21:36.713Z,8.30
2019-02-21T19:24:05.551Z,8.30
2019-02-21T19:26:34.422Z,8.87
2019-02-21T19:29:03.290Z,8.93
2019-02-21T19:31:32.164Z,8.50
2019-02-21T19:34:01.055Z,7.77
2019-02-21T19:36:30.233Z,8.83
2019-02-21T19:38:59.131Z,8.27
2019-02-21T19:41:27.992Z,8.60
2019-02-21T19:44:08.060Z,10.57
2019-02-21T19:46:27.446Z,8.60
2019-02-21T19:48:56.352Z,9.73
2019-02-21T19:51:25.245Z,9.03
2019-02-21T19:53:54.186Z,10.27
2019-02-21T19:56:23.168Z,10.50
2019-02-21T19:58:52.132Z,9.57
2019-02-21T20:01:22.125Z,9.23
2019-02-21T20:03:51.059Z,10.93
2019-02-21T20:06:20.077Z,9.50
2019-02-21T20:08:48.960Z,10.17
2019-02-21T20:11:17.883Z,10.90
2019-02-21T20:13:46.717Z,10.77
2019-02-21T20:16:15.609Z,7.90
2019-02-21T20:18:44.486Z,9.97
2019-02-21T20:21:13.323Z,11.27
2019-02-21T20:23:42.276Z,10.27
2019-02-21T20:26:18.353Z,10.13
2019-02-21T20:28:44.603Z,10.30
2019-02-21T20:31:13.536Z,11.00
2019-02-21T20:33:42.413Z,13.33
2019-02-21T20:36:11.276Z,10.93
2019-02-21T20:38:43.215Z,10.70
2019-02-21T20:41:12.201Z,10.33
2019-02-21T20:43:41.078Z,11.87
2019-02-21T20:46:10.234Z,9.50
2019-02-21T20:48:41.505Z,10.83
2019-02-21T20:51:10.349Z,11.47
2019-02-21T20:53:39.151Z,9.60
2019-02-21T20:56:07.962Z,11.27
2019-02-21T20:58:36.842Z,11.37
2019-02-21T21:01:06.733Z,12.47
2019-02-21T21:03:35.599Z,10.93
2019-02-21T21:06:04.511Z,12.87
2019-02-21T21:08:42.666Z,11.43
2019-02-21T21:11:03.873Z,13.97
2019-02-21T21:13:32.717Z,12.20
2019-02-21T21:16:01.474Z,13.67
2019-02-21T21:18:30.313Z,12.43
2019-02-21T21:20:59.156Z,12.10
2019-02-21T21:23:27.959Z,11.60
2019-02-21T21:25:56.894Z,11.83
2019-02-21T21:28:25.721Z,12.50
2019-02-21T21:30:54.949Z,13.40
2019-02-21T21:33:23.802Z,12.37
2019-02-21T21:35:52.607Z,13.73
2019-02-21T21:38:24.137Z,12.97
2019-02-21T21:40:51.874Z,13.03
2019-02-21T21:43:20.697Z,12.80
2019-02-21T21:45:49.429Z,13.83
2019-02-21T21:48:18.195Z,13.03
2019-02-21T21:50:46.976Z,13.23
2019-02-21T21:53:15.738Z,12.27
2019-02-21T21:55:44.590Z,13.90
2019-02-21T21:58:13.330Z,13.27
2019-02-21T22:00:42.408Z,12.97
2019-02-21T22:03:11.263Z,13.73
2019-02-21T22:05:40.083Z,13.67
2019-02-21T22:08:08.922Z,12.30
2019-02-21T22:10:37.641Z,12.53
2019-02-21T22:13:06.463Z,13.93
2019-02-21T22:15:35.262Z,12.30
2019-02-21T22:18:04.039Z,13.53
2019-02-21T22:20:32.849Z,12.27
2019-02-21T22:23:02.275Z,13.93
2019-02-21T22:25:31.190Z,13.00
2019-02-21T22:28:00.050Z,12.53
2019-02-21T22:30:28.858Z,11.70
2019-02-21T22:32:57.677Z,13.10
2019-02-21T22:35:26.506Z,12.60
2019-02-21T22:37:55.242Z,13.07
2019-02-21T22:40:23.963Z,12.57
2019-02-21T22:42:52.710Z,11.90
2019-02-21T22:45:21.518Z,12.20
2019-02-21T22:47:50.250Z,12.27
2019-02-21T22:50:19.134Z,11.00
2019-02-21T22:52:47.939Z,11.93
2019-02-21T22:55:16.686Z,10.87
2019-02-21T22:57:45.820Z,11.83
2019-02-21T23:00:36.520Z,12.67
2019-02-21T23:03:05.590Z,11.80
2019-02-21T23:05:42.321Z,11.20
2019-02-21T23:08:32.805Z,10.83
2019-02-21T23:11:01.630Z,10.67
2019-02-21T23:13:30.428Z,11.17
2019-02-21T23:15:59.172Z,11.77
2019-02-21T23:18:27.926Z,11.27
2019-02-21T23:20:59.718Z,11.17
2019-02-21T23:23:28.744Z,11.43
2019-02-21T23:25:57.526Z,12.33
2019-02-21T23:28:26.242Z,11.73
2019-02-21T23:30:54.984Z,11.67
2019-02-21T23:33:24.859Z,10.97
2019-02-21T23:35:53.641Z,10.90
2019-02-21T23:38:22.445Z,11.17
2019-02-21T23:40:51.150Z,10.57
2019-02-21T23:43:19.891Z,11.27
2019-02-21T23:45:48.606Z,11.80
2019-02-21T23:48:17.351Z,11.53
2019-02-21T23:50:46.044Z,11.83
2019-02-21T23:53:14.771Z,11.80
2019-02-21T23:55:43.498Z,12.63
2019-02-21T23:58:12.227Z,11.67
